createdAt,value
2022-12-09T00:01:07.710Z,11.38
2022-12-09T00:03:36.252Z,10.70
2022-12-09T00:06:07.476Z,14.00
2022-12-09T00:08:34.708Z,14.23
2022-12-09T00:11:02.139Z,11.90
2022-12-09T00:13:30.466Z,14.52
2022-12-09T00:15:57.248Z,13.98
2022-12-09T00:18:24.370Z,12.57
2022-12-09T00:20:53.059Z,10.77
2022-12-09T00:23:19.947Z,10.87
2022-12-09T00:25:47.214Z,12.95
2022-12-09T00:28:13.791Z,11.60
2022-12-09T00:31:03.198Z,13.02
2022-12-09T00:33:30.950Z,12.75
2022-12-09T00:36:05.372Z,14.63
2022-12-09T00:38:35.148Z,10.38
2022-12-09T00:41:02.756Z,11.63
2022-12-09T00:43:29.748Z,17.08
2022-12-09T00:45:57.369Z,13.95
2022-12-09T00:48:25.304Z,15.00
2022-12-09T00:50:52.399Z,13.35
2022-12-09T00:53:23.489Z,14.65
2022-12-09T00:55:50.479Z,13.30
2022-12-09T00:58:17.360Z,15.38
2022-12-09T01:00:44.614Z,14.40
2022-12-09T01:03:13.824Z,14.13
2022-12-09T01:05:41.318Z,13.15
2022-12-09T01:08:08.754Z,13.43
2022-12-09T01:10:37.879Z,15.23
2022-12-09T01:13:05.484Z,13.93
2022-12-09T01:15:32.813Z,15.88
2022-12-09T01:18:00.216Z,12.40
2022-12-09T01:20:27.131Z,14.60
2022-12-09T01:22:53.859Z,11.02
2022-12-09T01:25:20.480Z,13.37
2022-12-09T01:27:49.628Z,12.75
2022-12-09T01:30:19.264Z,15.20
2022-12-09T01:32:46.303Z,12.30
2022-12-09T01:35:13.379Z,13.23
2022-12-09T01:37:40.241Z,19.60
2022-12-09T01:40:10.947Z,14.10
2022-12-09T01:42:38.215Z,15.60
2022-12-09T01:45:44.784Z,14.07
2022-12-09T01:48:13.009Z,16.10
2022-12-09T01:50:43.506Z,14.43
2022-12-09T01:53:12.424Z,14.32
2022-12-09T01:55:40.534Z,14.00
2022-12-09T01:58:09.685Z,12.13
2022-12-09T02:00:36.658Z,18.27
2022-12-09T02:03:07.176Z,14.03
2022-12-09T02:05:35.472Z,15.05
2022-12-09T02:08:02.261Z,12.43
2022-12-09T02:10:29.835Z,15.13
2022-12-09T02:13:09.469Z,14.25
2022-12-09T02:15:42.916Z,12.77
2022-12-09T02:18:18.512Z,10.70
2022-12-09T02:20:50.294Z,13.90
2022-12-09T02:23:23.136Z,12.93
2022-12-09T02:25:56.215Z,12.70
2022-12-09T02:29:08.559Z,13.17
2022-12-09T02:32:14.622Z,13.40
2022-12-09T02:34:48.799Z,12.00
2022-12-09T02:37:21.391Z,11.85
2022-12-09T02:39:56.847Z,12.73
2022-12-09T02:42:29.442Z,14.87
2022-12-09T02:45:06.386Z,12.68
2022-12-09T02:47:40.853Z,15.07
2022-12-09T02:50:19.828Z,14.68
2022-12-09T02:52:52.120Z,10.60
2022-12-09T02:55:23.141Z,17.50
2022-12-09T02:58:02.439Z,12.20
2022-12-09T03:00:37.617Z,12.32
2022-12-09T03:03:07.077Z,14.23
2022-12-09T03:05:48.873Z,11.80
2022-12-09T03:08:24.820Z,12.03
2022-12-09T03:11:00.673Z,12.80
2022-12-09T03:13:38.566Z,12.50
2022-12-09T03:16:11.702Z,12.02
2022-12-09T03:18:44.025Z,15.07
2022-12-09T03:21:18.291Z,13.77
2022-12-09T03:23:47.432Z,12.10
2022-12-09T03:26:17.902Z,11.65
2022-12-09T03:28:49.340Z,12.23
2022-12-09T03:31:21.495Z,12.25
2022-12-09T03:33:55.638Z,11.03
2022-12-09T03:36:27.057Z,12.73
2022-12-09T03:38:56.285Z,11.07
2022-12-09T03:41:28.603Z,13.52
2022-12-09T03:43:59.974Z,12.05
2022-12-09T03:46:30.673Z,15.17
2022-12-09T03:48:59.200Z,15.48
2022-12-09T03:51:32.814Z,18.58
2022-12-09T03:54:06.743Z,13.52
2022-12-09T03:56:45.637Z,15.32
2022-12-09T03:59:14.889Z,13.07
2022-12-09T04:01:45.473Z,13.82
2022-12-09T04:04:13.427Z,12.63
2022-12-09T04:06:47.598Z,13.18
2022-12-09T04:09:17.230Z,13.15
2022-12-09T04:11:45.249Z,14.10
2022-12-09T04:14:15.997Z,19.23
2022-12-09T04:16:44.714Z,14.55
2022-12-09T04:19:12.964Z,12.50
2022-12-09T04:21:46.610Z,14.20
2022-12-09T04:24:17.984Z,11.97
2022-12-09T04:26:52.152Z,12.40
2022-12-09T04:29:20.083Z,10.55
2022-12-09T04:31:47.944Z,14.82
2022-12-09T04:34:15.004Z,15.75
2022-12-09T04:36:44.354Z,15.23
2022-12-09T04:39:13.508Z,13.18
2022-12-09T04:41:42.687Z,18.77
2022-12-09T04:44:09.685Z,13.02
2022-12-09T04:46:37.886Z,12.07
2022-12-09T04:49:05.506Z,12.30
2022-12-09T04:51:39.189Z,12.90
2022-12-09T04:54:13.077Z,13.27
2022-12-09T04:56:41.628Z,14.90
2022-12-09T04:59:11.325Z,14.98
2022-12-09T05:01:39.250Z,15.20
2022-12-09T05:04:07.203Z,16.00
2022-12-09T05:06:35.877Z,11.88
2022-12-09T05:09:08.624Z,14.05
2022-12-09T05:11:38.772Z,12.82
2022-12-09T05:17:40.710Z,13.10
2022-12-09T05:20:09.792Z,12.18
2022-12-09T05:22:39.053Z,15.55
2022-12-09T05:25:09.083Z,11.80
2022-12-09T05:27:38.971Z,13.43
2022-12-09T05:30:10.279Z,14.15
2022-12-09T05:32:38.500Z,16.30
2022-12-09T05:35:07.471Z,13.02
2022-12-09T05:37:35.597Z,17.45
2022-12-09T05:40:07.749Z,17.63
2022-12-09T05:42:41.115Z,18.15
2022-12-09T05:45:20.248Z,15.60
2022-12-09T05:47:48.448Z,14.88
2022-12-09T05:50:16.563Z,14.02
2022-12-09T05:52:43.863Z,13.03
2022-12-09T05:55:11.980Z,11.23
2022-12-09T05:57:43.252Z,12.05
2022-12-09T06:00:15.525Z,13.13
2022-12-09T06:02:44.364Z,17.10
2022-12-09T06:05:11.957Z,12.83
2022-12-09T06:07:39.800Z,14.13
2022-12-09T06:10:10.592Z,12.35
2022-12-09T06:12:39.814Z,12.50
2022-12-09T06:15:10.392Z,16.08
2022-12-09T06:17:40.315Z,13.90
2022-12-09T06:20:08.470Z,20.77
2022-12-09T06:22:36.926Z,13.93
2022-12-09T06:25:05.140Z,14.13
2022-12-09T06:27:33.371Z,15.17
2022-12-09T06:30:00.676Z,17.55
2022-12-09T06:32:28.087Z,18.65
2022-12-09T06:34:58.202Z,17.10
2022-12-09T06:37:25.769Z,14.80
2022-12-09T06:39:54.453Z,16.03
2022-12-09T06:42:21.812Z,21.10
2022-12-09T06:44:48.968Z,19.13
2022-12-09T06:47:16.281Z,23.20
2022-12-09T06:49:44.271Z,18.98
2022-12-09T06:52:13.759Z,17.15
2022-12-09T06:54:42.002Z,18.30
2022-12-09T06:57:10.895Z,19.80
2022-12-09T06:59:40.399Z,18.95
2022-12-09T07:02:10.174Z,16.70
2022-12-09T07:04:37.865Z,18.50
2022-12-09T07:07:06.491Z,16.40
2022-12-09T07:09:36.439Z,16.13
2022-12-09T07:12:05.500Z,16.20
2022-12-09T07:14:34.434Z,17.85
2022-12-09T07:17:02.996Z,21.70
2022-12-09T07:19:32.159Z,20.33
2022-12-09T07:22:00.509Z,16.10
2022-12-09T07:24:29.103Z,21.63
2022-12-09T07:27:04.703Z,16.40
2022-12-09T07:29:37.237Z,18.35
2022-12-09T07:32:05.500Z,14.57
2022-12-09T07:34:33.154Z,20.63
2022-12-09T07:37:01.149Z,17.53
2022-12-09T07:39:29.262Z,18.85
2022-12-09T07:41:59.542Z,17.85
2022-12-09T07:44:27.421Z,20.23
2022-12-09T07:46:57.388Z,17.65
2022-12-09T07:49:40.807Z,17.90
2022-12-09T07:52:09.052Z,17.88
2022-12-09T07:54:37.130Z,21.25
2022-12-09T07:57:07.422Z,16.90
2022-12-09T07:59:35.477Z,20.92
2022-12-09T08:02:06.005Z,21.50
2022-12-09T08:04:35.301Z,29.40
2022-12-09T08:07:02.655Z,25.58
2022-12-09T08:09:29.578Z,23.15
2022-12-09T08:11:56.728Z,28.25
2022-12-09T08:14:24.728Z,33.57
2022-12-09T08:16:51.603Z,29.42
2022-12-09T08:19:18.685Z,35.75
2022-12-09T08:21:51.006Z,28.33
2022-12-09T08:24:21.914Z,27.05
2022-12-09T08:26:51.439Z,28.43
2022-12-09T08:29:18.422Z,25.05
2022-12-09T08:31:46.569Z,21.38
2022-12-09T08:34:14.147Z,16.05
2022-12-09T08:36:41.817Z,15.90
2022-12-09T08:39:08.631Z,16.60
2022-12-09T08:41:40.035Z,22.38
2022-12-09T08:44:11.209Z,21.15
2022-12-09T08:46:40.095Z,20.48
2022-12-09T08:49:10.856Z,21.40
2022-12-09T08:51:38.292Z,18.43
2022-12-09T08:54:05.849Z,16.67
2022-12-09T08:56:32.782Z,18.85
2022-12-09T08:58:59.642Z,18.33
2022-12-09T09:01:28.452Z,22.55
2022-12-09T09:03:55.672Z,18.57
2022-12-09T09:06:24.131Z,16.88
2022-12-09T09:08:54.006Z,20.55
2022-12-09T09:11:22.561Z,19.00
2022-12-09T09:13:50.933Z,18.42
2022-12-09T09:16:20.944Z,16.87
2022-12-09T09:18:50.721Z,19.10
2022-12-09T09:21:19.628Z,16.52
2022-12-09T09:23:51.912Z,18.88
2022-12-09T09:26:21.490Z,17.42
2022-12-09T09:28:48.751Z,15.57
2022-12-09T09:31:19.386Z,19.65
2022-12-09T09:33:48.950Z,14.98
2022-12-09T09:36:18.202Z,14.55
2022-12-09T09:38:45.280Z,14.60
2022-12-09T09:41:25.479Z,16.10
2022-12-09T09:43:53.787Z,17.27
2022-12-09T09:46:30.250Z,18.25
2022-12-09T09:48:58.474Z,24.48
2022-12-09T09:51:26.723Z,25.08
2022-12-09T09:53:53.566Z,17.27
2022-12-09T09:56:36.819Z,19.25
2022-12-09T09:59:20.497Z,17.23
2022-12-09T10:01:57.150Z,16.58
2022-12-09T10:04:33.483Z,19.10
2022-12-09T10:07:08.349Z,14.57
2022-12-09T10:09:41.646Z,16.35
2022-12-09T10:12:19.162Z,15.15
2022-12-09T10:14:57.118Z,14.00
2022-12-09T10:17:28.285Z,17.80
2022-12-09T10:20:01.119Z,14.83
2022-12-09T10:22:31.728Z,16.50
2022-12-09T10:25:05.581Z,13.45
2022-12-09T10:27:38.162Z,15.40
2022-12-09T10:30:10.426Z,11.38
2022-12-09T10:32:38.588Z,14.03
2022-12-09T10:39:20.322Z,7.70
2022-12-09T10:41:51.304Z,9.60
2022-12-09T10:44:21.888Z,12.45
2022-12-09T10:46:55.874Z,11.60
2022-12-09T10:49:22.924Z,10.93
2022-12-09T10:51:51.728Z,12.75
2022-12-09T10:54:33.579Z,14.30
2022-12-09T10:57:03.006Z,15.90
2022-12-09T11:00:00.943Z,15.13
2022-12-09T11:02:29.353Z,16.33
2022-12-09T11:05:21.826Z,11.73
2022-12-09T11:07:50.735Z,19.10
2022-12-09T11:10:22.184Z,15.90
2022-12-09T11:12:54.099Z,9.97
2022-12-09T11:15:39.694Z,16.90
2022-12-09T11:18:08.794Z,9.35
2022-12-09T11:20:38.852Z,14.85
2022-12-09T11:23:16.306Z,15.38
2022-12-09T11:25:53.113Z,12.60
2022-12-09T11:28:29.323Z,11.82
2022-12-09T11:31:28.309Z,13.15
2022-12-09T11:33:56.676Z,12.32
2022-12-09T11:36:28.428Z,11.65
2022-12-09T11:39:22.387Z,12.77
2022-12-09T11:41:58.380Z,14.38
2022-12-09T11:44:27.353Z,16.08
2022-12-09T11:47:00.306Z,13.45
2022-12-09T11:49:36.322Z,13.88
2022-12-09T11:52:21.935Z,16.03
2022-12-09T11:54:59.705Z,14.75
2022-12-09T11:57:39.282Z,15.68
2022-12-09T12:00:29.298Z,13.57
2022-12-09T12:03:25.446Z,15.60
2022-12-09T12:05:54.314Z,16.13
2022-12-09T12:08:26.140Z,15.80
2022-12-09T12:11:05.210Z,15.85
2022-12-09T12:13:37.935Z,17.70
2022-12-09T12:16:08.587Z,15.45
2022-12-09T12:18:44.295Z,12.57
2022-12-09T12:21:31.489Z,14.70
2022-12-09T12:28:36.220Z,16.13
2022-12-09T12:31:17.821Z,15.98
2022-12-09T12:37:00.201Z,18.80
2022-12-09T12:39:44.244Z,16.13
2022-12-09T12:42:22.150Z,22.40
2022-12-09T12:45:00.720Z,18.67
2022-12-09T12:47:58.235Z,14.13
2022-12-09T12:50:47.413Z,13.70
2022-12-09T12:53:29.288Z,14.93
2022-12-09T12:55:59.990Z,12.88
2022-12-09T12:58:43.825Z,13.07
2022-12-09T13:01:20.437Z,16.23
2022-12-09T13:04:14.153Z,14.90
2022-12-09T13:06:50.418Z,15.90
2022-12-09T13:09:23.991Z,15.82
2022-12-09T13:12:16.287Z,16.73
2022-12-09T13:14:57.126Z,17.53
2022-12-09T13:17:39.642Z,13.38
2022-12-09T13:20:21.187Z,21.15
2022-12-09T13:22:56.038Z,15.68
2022-12-09T13:25:31.784Z,15.48
2022-12-09T13:28:27.442Z,14.77
2022-12-09T13:31:06.861Z,15.20
2022-12-09T13:33:48.128Z,16.38
2022-12-09T13:36:21.222Z,18.52
2022-12-09T13:39:25.475Z,11.32
2022-12-09T13:41:54.987Z,14.10
2022-12-09T13:44:22.495Z,13.48
2022-12-09T13:47:01.757Z,17.27
2022-12-09T13:49:28.308Z,14.25
2022-12-09T13:51:55.870Z,16.20
2022-12-09T13:54:25.086Z,14.00
2022-12-09T13:57:12.525Z,12.68
2022-12-09T14:03:16.100Z,15.05
2022-12-09T14:06:20.010Z,13.25
2022-12-09T14:08:53.625Z,14.67
2022-12-09T14:11:56.054Z,15.15
2022-12-09T14:14:54.728Z,17.00
2022-12-09T14:17:57.517Z,15.70
2022-12-09T14:20:27.465Z,20.10
2022-12-09T14:23:11.485Z,17.83
2022-12-09T14:25:54.209Z,16.05
2022-12-09T14:28:35.130Z,17.75
2022-12-09T14:31:08.410Z,15.85
2022-12-09T14:33:37.458Z,14.40
2022-12-09T14:36:30.585Z,14.83
2022-12-09T14:41:54.816Z,20.42
2022-12-09T14:44:30.728Z,18.58
2022-12-09T14:47:15.558Z,14.70
2022-12-09T14:49:49.227Z,11.87
2022-12-09T14:52:23.354Z,15.68
2022-12-09T14:54:51.650Z,15.77
2022-12-09T14:57:22.283Z,13.25
2022-12-09T14:59:50.559Z,16.13
2022-12-09T15:02:22.386Z,18.25
2022-12-09T15:04:51.302Z,19.80
2022-12-09T15:07:19.421Z,14.65
2022-12-09T15:09:51.760Z,15.75
2022-12-09T15:12:21.031Z,15.67
2022-12-09T15:14:54.577Z,15.32
2022-12-09T15:17:28.430Z,15.15
2022-12-09T15:20:02.575Z,15.98
2022-12-09T15:22:31.252Z,17.17
2022-12-09T15:24:58.321Z,16.98
2022-12-09T15:27:25.947Z,17.42
2022-12-09T15:29:53.534Z,18.42
2022-12-09T15:32:24.746Z,14.38
2022-12-09T15:34:51.404Z,15.23
2022-12-09T15:37:19.860Z,12.85
2022-12-09T15:39:50.702Z,16.25
2022-12-09T15:42:22.578Z,18.08
2022-12-09T15:44:54.872Z,16.85
2022-12-09T15:47:26.818Z,13.77
2022-12-09T15:49:56.277Z,13.73
2022-12-09T15:52:39.653Z,17.77
2022-12-09T15:55:11.684Z,17.67
2022-12-09T15:57:42.456Z,16.52
2022-12-09T16:00:10.355Z,15.33
2022-12-09T16:02:40.606Z,13.00
2022-12-09T16:05:10.190Z,16.33
2022-12-09T16:07:37.309Z,18.95
2022-12-09T16:10:08.855Z,18.20
2022-12-09T16:12:36.404Z,25.33
2022-12-09T16:15:05.329Z,24.52
2022-12-09T16:17:37.292Z,22.98
2022-12-09T16:20:30.930Z,20.77
2022-12-09T16:22:59.326Z,23.47
2022-12-09T16:25:29.739Z,20.95
2022-12-09T16:28:49.353Z,22.60
2022-12-09T16:31:22.177Z,20.15
2022-12-09T16:33:50.992Z,20.20
2022-12-09T16:36:27.884Z,19.75
2022-12-09T16:39:27.548Z,19.75
2022-12-09T16:41:56.556Z,19.35
2022-12-09T16:44:29.153Z,22.67
2022-12-09T16:47:09.394Z,21.67
2022-12-09T16:49:36.130Z,22.83
2022-12-09T16:52:04.341Z,23.55
2022-12-09T16:54:31.098Z,21.08
2022-12-09T16:56:58.089Z,21.15
2022-12-09T16:59:28.611Z,24.07
2022-12-09T17:02:01.149Z,20.70
2022-12-09T17:04:29.033Z,23.27
2022-12-09T17:06:57.069Z,44.58
2022-12-09T17:09:27.611Z,25.17
2022-12-09T17:11:54.429Z,25.33
2022-12-09T17:14:20.964Z,25.90
2022-12-09T17:16:50.279Z,24.20
2022-12-09T17:19:16.795Z,23.48
2022-12-09T17:21:43.666Z,24.50
2022-12-09T17:24:12.346Z,23.70
2022-12-09T17:26:47.761Z,26.55
2022-12-09T17:29:15.168Z,21.35
2022-12-09T17:31:42.082Z,20.58
2022-12-09T17:34:09.268Z,25.58
2022-12-09T17:36:39.558Z,20.40
2022-12-09T17:39:06.898Z,21.90
2022-12-09T17:41:33.547Z,22.40
2022-12-09T17:44:01.448Z,22.52
2022-12-09T17:46:32.854Z,23.23
2022-12-09T17:49:05.359Z,23.30
2022-12-09T17:52:07.006Z,24.83
2022-12-09T18:01:20.392Z,19.45
2022-12-09T18:07:13.977Z,23.27
2022-12-09T18:09:41.013Z,21.83
2022-12-09T18:12:12.217Z,22.25
2022-12-09T18:20:50.968Z,21.00
2022-12-09T18:23:18.161Z,22.27
2022-12-09T18:25:45.074Z,24.00
2022-12-09T18:28:13.017Z,23.07
2022-12-09T18:30:40.013Z,24.20
2022-12-09T18:33:06.710Z,22.90
2022-12-09T18:35:33.561Z,20.75
2022-12-09T18:38:09.651Z,23.55
2022-12-09T18:40:39.312Z,21.17
2022-12-09T18:43:05.854Z,25.05
2022-12-09T18:45:34.321Z,26.80
2022-12-09T18:48:00.869Z,24.77
2022-12-09T18:50:27.829Z,25.52
2022-12-09T18:52:54.404Z,24.93
2022-12-09T18:55:22.845Z,24.27
2022-12-09T18:57:49.812Z,32.15
2022-12-09T19:03:48.305Z,28.15
2022-12-09T19:07:05.560Z,24.53
2022-12-09T19:09:54.252Z,32.33
2022-12-09T19:12:47.140Z,28.00
2022-12-09T19:15:42.863Z,26.50
2022-12-09T19:19:10.493Z,29.25
2022-12-09T19:22:39.831Z,26.87
2022-12-09T19:25:29.003Z,33.95
2022-12-09T19:27:59.687Z,29.88
2022-12-09T19:30:26.232Z,34.50
2022-12-09T19:32:53.650Z,35.78
2022-12-09T19:35:20.372Z,34.43
2022-12-09T19:37:47.106Z,35.67
2022-12-09T19:43:52.105Z,38.45
2022-12-09T19:46:47.348Z,34.97
2022-12-09T19:52:50.847Z,41.83
2022-12-09T19:55:26.208Z,44.17
2022-12-09T19:58:09.538Z,39.70
2022-12-09T20:00:48.168Z,39.93
2022-12-09T20:03:40.645Z,38.42
2022-12-09T20:06:15.496Z,40.38
2022-12-09T20:08:59.597Z,37.88
2022-12-09T20:11:43.240Z,40.22
2022-12-09T20:14:12.600Z,40.38
2022-12-09T20:16:41.340Z,37.97
2022-12-09T20:19:09.578Z,34.50
2022-12-09T20:21:36.343Z,35.08
2022-12-09T20:24:06.221Z,35.60
2022-12-09T20:26:35.060Z,39.03
2022-12-09T20:29:03.907Z,37.47
2022-12-09T20:31:34.365Z,39.00
2022-12-09T20:34:07.791Z,44.13
2022-12-09T20:36:35.948Z,35.85
2022-12-09T20:39:05.885Z,35.05
2022-12-09T20:41:32.440Z,30.38
2022-12-09T20:43:59.875Z,36.65
2022-12-09T20:46:28.329Z,39.88
2022-12-09T20:48:55.611Z,36.45
2022-12-09T20:51:27.366Z,37.03
2022-12-09T20:53:54.744Z,34.42
2022-12-09T20:56:22.694Z,35.08
2022-12-09T20:58:50.547Z,31.15
2022-12-09T21:01:19.631Z,33.88
2022-12-09T21:03:47.015Z,42.03
2022-12-09T21:06:15.104Z,38.60
2022-12-09T21:08:43.859Z,34.15
2022-12-09T21:11:11.924Z,32.75
2022-12-09T21:13:40.465Z,38.35
2022-12-09T21:16:09.604Z,34.53
2022-12-09T21:18:37.248Z,36.53
2022-12-09T21:21:04.568Z,35.00
2022-12-09T21:23:34.085Z,36.17
2022-12-09T21:26:05.025Z,40.75
2022-12-09T21:28:32.001Z,30.73
2022-12-09T21:30:58.799Z,34.20
2022-12-09T21:33:25.569Z,32.72
2022-12-09T21:35:54.409Z,35.00
2022-12-09T21:38:20.928Z,36.42
2022-12-09T21:40:47.863Z,42.43
2022-12-09T21:43:15.820Z,36.47
2022-12-09T21:45:44.122Z,32.67
2022-12-09T21:48:10.613Z,61.08
2022-12-09T21:50:37.145Z,48.72
2022-12-09T21:53:03.703Z,35.47
2022-12-09T21:55:35.957Z,34.42
2022-12-09T21:58:04.072Z,25.10
2022-12-09T22:00:32.221Z,31.90
2022-12-09T22:02:59.881Z,31.80
2022-12-09T22:05:26.377Z,26.63
2022-12-09T22:07:52.882Z,30.45
2022-12-09T22:10:19.435Z,29.13
2022-12-09T22:12:45.950Z,33.45
2022-12-09T22:15:12.872Z,23.03
2022-12-09T22:17:40.802Z,18.35
2022-12-09T22:20:54.004Z,23.45
2022-12-09T22:23:01.316Z,22.75
2022-12-09T22:25:27.856Z,23.80
2022-12-09T22:27:54.324Z,22.53
2022-12-09T22:30:20.955Z,20.58
2022-12-09T22:32:51.066Z,18.27
2022-12-09T22:35:17.809Z,19.50
2022-12-09T22:37:46.401Z,18.88
2022-12-09T22:40:13.150Z,19.13
2022-12-09T22:42:39.702Z,17.63
2022-12-09T22:45:06.991Z,17.88
2022-12-09T22:47:33.538Z,15.80
2022-12-09T22:50:01.468Z,15.82
2022-12-09T22:52:28.067Z,13.70
2022-12-09T22:54:54.558Z,17.13
2022-12-09T22:57:21.093Z,22.48
2022-12-09T22:59:49.884Z,18.73
2022-12-09T23:02:16.799Z,20.02
2022-12-09T23:04:48.333Z,23.43
2022-12-09T23:07:16.305Z,21.63
2022-12-09T23:09:42.942Z,19.27
2022-12-09T23:12:11.292Z,19.52
2022-12-09T23:14:37.894Z,18.63
2022-12-09T23:17:04.395Z,17.17
2022-12-09T23:19:33.966Z,22.58
2022-12-09T23:22:06.326Z,18.60
2022-12-09T23:24:35.352Z,19.58
2022-12-09T23:27:01.857Z,23.17
2022-12-09T23:29:28.342Z,15.48
2022-12-09T23:31:55.085Z,23.30
2022-12-09T23:34:22.181Z,20.40
2022-12-09T23:36:49.095Z,18.90
2022-12-09T23:39:17.797Z,19.97
2022-12-09T23:41:46.041Z,17.58
2022-12-09T23:44:14.688Z,18.80
2022-12-09T23:46:41.254Z,22.75
2022-12-09T23:49:08.504Z,19.57
2022-12-09T23:51:39.637Z,23.30
2022-12-09T23:54:08.870Z,21.40
2022-12-09T23:56:38.384Z,27.40
2022-12-09T23:59:08.724Z,22.50
